sensor_id;sensor_type;location;lat;lon;timestamp;pressure;altitude;pressure_sealevel;temperature;humidity
71642;BME280;60657;50.122;14.468;2022-09-23T00:00:04;98826.08116695087;;;10.759136339360644;76.59899290455482
71642;BME280;60657;50.122;14.468;2022-09-23T00:03:21;98823.53837286735;;;10.689707789730676;76.84313725490196
71642;BME280;60657;50.122;14.468;2022-09-23T00:06:38;98823.52965121878;;;10.60959792477302;76.83169298847943
71642;BME280;60657;50.122;14.468;2022-09-23T00:09:54;98826.82822972987;;;10.57488364995804;76.92133974212253
71642;BME280;60657;50.122;14.468;2022-09-23T00:13:10;98830.10686763025;;;10.545510032806895;77.03578240634775
71642;BME280;60657;50.122;14.468;2022-09-23T00:16:27;98827.58660219425;;;10.468070496681165;77.37911039902342
71642;BME280;60657;50.122;14.468;2022-09-23T00:19:46;98830.04805764236;;;10.486762798504614;77.23796444647898
71642;BME280;60657;50.122;14.468;2022-09-23T00:23:02;98828.4104892764;;;10.516136415655758;77.0281528953994
71642;BME280;60657;50.122;14.468;2022-09-23T00:26:19;98823.37850756715;;;10.44670786602579;77.33142595559625
71642;BME280;60657;50.122;14.468;2022-09-23T00:29:36;98820.02332524829;;;10.382619974059665;77.48020141908904
71642;BME280;60657;50.122;14.468;2022-09-23T00:32:52;98821.4793109148;;;10.120927748531322;77.53360799572748
71642;BME280;60657;50.122;14.468;2022-09-23T00:36:08;98813.12886613185;;;10.10757610437171;78.12298771648737
71642;BME280;60657;50.122;14.468;2022-09-23T00:39:27;98813.21153419433;;;10.13160906385901;77.99328603036545
71642;BME280;60657;50.122;14.468;2022-09-23T00:42:45;98817.33385981736;;;10.158312352178228;78.355687800412
71642;BME280;60657;50.122;14.468;2022-09-23T00:46:02;98820.59700366494;;;10.067521171892885;78.37666895551995
71642;BME280;60657;50.122;14.468;2022-09-23T00:49:19;98809.06569394023;;;10.126268406195166;78.10963607232776
71642;BME280;60657;50.122;14.468;2022-09-23T00:52:42;98809.91075970756;;;10.120927748531322;78.32707713435569
71642;BME280;60657;50.122;14.468;2022-09-23T00:56:01;98802.37289761315;;;10.086213473716334;78.1496910048066
71642;BME280;60657;50.122;14.468;2022-09-23T00:59:22;98804.85069365425;;;10.038147554741741;78.30037384603646
71642;BME280;60657;50.122;14.468;2022-09-23T01:02:39;98799.89490150163;;;10.067521171892885;78.15350576028077
71642;BME280;60657;50.122;14.468;2022-09-23T01:05:54;98802.34947382995;;;10.011444266422522;78.05622949568932
71642;BME280;60657;50.122;14.468;2022-09-23T01:09:16;98804.95318205493;;;10.15030136568246;77.7949187457084
71642;BME280;60657;50.122;14.468;2022-09-23T01:12:37;98803.2968372686;;;10.182345311665522;77.85976958876935
71642;BME280;60657;50.122;14.468;2022-09-23T01:16:09;98799.11761246121;;;10.147631036850541;77.87693598840315
71642;BME280;60657;50.122;14.468;2022-09-23T01:19:41;98794.08210196537;;;10.027466239414053;77.58129243915465
71642;BME280;60657;50.122;14.468;2022-09-23T01:23:21;98799.64823089146;;;9.805828946364535;78.36331731136035
71642;BME280;60657;50.122;14.468;2022-09-23T01:27:04;98802.27716132355;;;9.942015716792554;78.53879606317236
71642;BME280;60657;50.122;14.468;2022-09-23T01:30:36;98791.37507842176;;;9.853894865339129;78.7657740138857
71642;BME280;60657;50.122;14.468;2022-09-23T01:34:03;98794.40783123377;;;9.602883955138473;79.0614175631342
71642;BME280;60657;50.122;14.468;2022-09-23T01:37:39;98792.60415133147;;;9.46936751354238;79.2693217364767
71642;BME280;60657;50.122;14.468;2022-09-23T01:41:05;98787.52122980486;;;9.399938963912412;80.51483939879454
71642;BME280;60657;50.122;14.468;2022-09-23T01:44:33;98785.03492120816;;;9.274433508812088;79.88158999008164
71642;BME280;60657;50.122;14.468;2022-09-23T01:47:57;98783.22031654576;;;9.207675288014038;80.67315175097276
71642;BME280;60657;50.122;14.468;2022-09-23T01:51:22;98789.94288295814;;;9.357213702601662;79.8281834134432
71642;BME280;60657;50.122;14.468;2022-09-23T01:54:43;98789.86015497793;;;9.303807125963225;79.64126039520866
71642;BME280;60657;50.122;14.468;2022-09-23T01:58:07;98785.55218307537;;;9.127565423056382;80.11047531853208
71642;BME280;60657;50.122;14.468;2022-09-23T02:01:31;98777.27964657273;;;9.122224765392538;80.41947051194019
71642;BME280;60657;50.122;14.468;2022-09-23T02:04:53;98784.7700333317;;;9.140917067215995;80.28213931486992
71642;BME280;60657;50.122;14.468;2022-09-23T02:08:18;98784.73539828756;;;9.050125886930651;81.63447013046463
71642;BME280;60657;50.122;14.468;2022-09-23T02:11:41;98777.27964657273;;;8.978027008468757;80.25162127107653
71642;BME280;60657;50.122;14.468;2022-09-23T02:15:02;98783.97014789157;;;9.012741283283745;80.80666819256885
71642;BME280;60657;50.122;14.468;2022-09-23T02:18:25;98783.169962499;;;8.980697337300676;80.64835584039064
71642;BME280;60657;50.122;14.468;2022-09-23T02:21:48;98788.14109587441;;;9.023422598611432;80.35461966887922
71642;BME280;60657;50.122;14.468;2022-09-23T02:25:09;98787.42408640879;;;9.11154345006485;79.96360723277638
71642;BME280;60657;50.122;14.468;2022-09-23T02:28:28;98793.18014381576;;;9.060807202258339;80.4023041123064
71642;BME280;60657;50.122;14.468;2022-09-23T02:31:54;98787.63112538285;;;8.71099412527657;82.11894407568475
71642;BME280;60657;50.122;14.468;2022-09-23T02:35:17;98783.03196035197;;;8.927290760662238;81.60776684214542
71642;BME280;60657;50.122;14.468;2022-09-23T02:38:41;98779.9335132676;;;9.074158846417944;81.6096742198825
71642;BME280;60657;50.122;14.468;2022-09-23T02:42:05;98772.6344109122;;;9.170290684367131;81.39986266880292
71642;BME280;60657;50.122;14.468;2022-09-23T02:45:27;98782.40280988916;;;8.972686350804914;81.61539635309377
71642;BME280;60657;50.122;14.468;2022-09-23T02:48:45;98778.9992167487;;;8.956664377813382;81.19195849546044
71642;BME280;60657;50.122;14.468;2022-09-23T02:52:08;98778.02665947756;;;8.841840238040739;81.11375600823987
71642;BME280;60657;50.122;14.468;2022-09-23T02:55:24;98774.5822925603;;;8.769741359578852;81.59060044251163
71642;BME280;60657;50.122;14.468;2022-09-23T02:58:44;98779.28689574193;;;8.582818341344321;82.07888914320593
71642;BME280;60657;50.122;14.468;2022-09-23T03:02:07;98780.99447409288;;;8.593499656672009;82.5957885099565
71642;BME280;60657;50.122;14.468;2022-09-23T03:05:34;98775.91010693905;;;8.486686503395134;83.03448538948653
71642;BME280;60657;50.122;14.468;2022-09-23T03:09:03;98770.14767668852;;;8.513389791714353;83.44266422522317
71642;BME280;60657;50.122;14.468;2022-09-23T03:12:26;98771.83572239405;;;8.54276340886549;83.25001907377737
71642;BME280;60657;50.122;14.468;2022-09-23T03:15:52;98767.54642892702;;;8.446631570916303;83.25764858472571
71642;BME280;60657;50.122;14.468;2022-09-23T03:19:18;98764.98328874519;;;8.427939269092853;83.6887159533074
71642;BME280;60657;50.122;14.468;2022-09-23T03:22:43;98762.10354015994;;;8.200961318379491;85.08300907911803
71642;BME280;60657;50.122;14.468;2022-09-23T03:26:06;98757.82124946729;;;8.14221408407721;86.00236514839399
71642;BME280;60657;50.122;14.468;2022-09-23T03:29:26;98757.55411902226;;;8.441290913252459;85.57129777981231
71642;BME280;60657;50.122;14.468;2022-09-23T03:32:48;98754.29583783165;;;8.459983215075916;85.14213778896773
71642;BME280;60657;50.122;14.468;2022-09-23T03:36:13;98756.09921330475;;;8.580148012512396;84.56038757915617
71642;BME280;60657;50.122;14.468;2022-09-23T03:39:37;98752.81899227717;;;8.604180971999696;84.08735790035858
71642;BME280;60657;50.122;14.468;2022-09-23T03:42:58;98750.65516792165;;;8.291752498664835;85.12687876707103
71642;BME280;60657;50.122;14.468;2022-09-23T03:46:18;98753.11647390023;;;8.315785458152135;85.14404516670481
71642;BME280;60657;50.122;14.468;2022-09-23T03:49:35;98748.92335391419;;;8.289082169832916;86.05386434729535
71642;BME280;60657;50.122;14.468;2022-09-23T03:52:53;98741.62188662204;;;8.321126115815979;85.41870756084535
71642;BME280;60657;50.122;14.468;2022-09-23T03:56:09;98743.35116103807;;;8.374532692454416;84.71107042038605
71642;BME280;60657;50.122;14.468;2022-09-23T03:59:25;98741.70272460762;;;8.323796444647897;85.24132143129626
71642;BME280;60657;50.122;14.468;2022-09-23T04:02:41;98734.19465632;;;8.257038223849854;84.9094377050431
71642;BME280;60657;50.122;14.468;2022-09-23T04:05:57;98739.99395319566;;;8.257038223849854;85.02197299153124
71642;BME280;60657;50.122;14.468;2022-09-23T04:09:13;98734.2147324459;;;8.33714808880751;84.81788357366293
71642;BME280;60657;50.122;14.468;2022-09-23T04:12:29;98730.14309230025;;;8.331807431143666;84.78355077439537
71642;BME280;60657;50.122;14.468;2022-09-23T04:15:44;98726.72712416406;;;8.262378881513698;84.78736552986953
71642;BME280;60657;50.122;14.468;2022-09-23T04:19:04;98735.8630888759;;;8.307774471656366;84.76638437476157
71642;BME280;60657;50.122;14.468;2022-09-23T04:22:20;98728.94134049292;;;8.094148165102617;85.1326009002823
71642;BME280;60657;50.122;14.468;2022-09-23T04:25:35;98726.48072713905;;;8.144884412909136;85.42061493858243
71642;BME280;60657;50.122;14.468;2022-09-23T04:28:58;98724.85415132887;;;8.14221408407721;85.51598382543679
71642;BME280;60657;50.122;14.468;2022-09-23T04:32:14;98720.80707206459;;;8.206301976043335;84.91325246051728
71642;BME280;60657;50.122;14.468;2022-09-23T04:35:35;98720.80707206459;;;8.190280003051804;84.89227130540932
71642;BME280;60657;50.122;14.468;2022-09-23T04:38:55;98721.5381074138;;;8.144884412909136;85.05249103532464
71642;BME280;60657;50.122;14.468;2022-09-23T04:42:10;98718.97251172973;;;8.035400930800336;84.80643930724041
71642;BME280;60657;50.122;14.468;2022-09-23T04:45:26;98727.1872938396;;;8.000686655985355;85.05249103532464
71642;BME280;60657;50.122;14.468;2022-09-23T04:48:42;98725.34354384476;;;7.82711528191043;85.46639200427252
71642;BME280;60657;50.122;14.468;2022-09-23T04:51:58;98722.05040953323;;;7.861829556725411;85.08491645685511
71642;BME280;60657;50.122;14.468;2022-09-23T04:55:14;98721.3037956745;;;7.883192187380786;85.18600747692074
71642;BME280;60657;50.122;14.468;2022-09-23T04:58:30;98728.5916502204;;;7.883192187380786;85.31761654077974
71642;BME280;60657;50.122;14.468;2022-09-23T05:01:47;98725.92843226471;;;7.7496757457846925;85.64568551155871
71642;BME280;60657;50.122;14.468;2022-09-23T05:05:05;98724.39693683737;;;7.763027389944305;85.58846417944609
71642;BME280;60657;50.122;14.468;2022-09-23T05:08:21;98727.73464264865;;;7.765697718776224;85.65140764476998
71642;BME280;60657;50.122;14.468;2022-09-23T05:11:37;98730.3498923898;;;7.883192187380786;85.6475928892958
71642;BME280;60657;50.122;14.468;2022-09-23T05:14:53;98739.4395624969;;;7.925917448691536;84.90562294956894
71642;BME280;60657;50.122;14.468;2022-09-23T05:18:08;98733.68753571267;;;7.941939421683067;85.39200427252614
71642;BME280;60657;50.122;14.468;2022-09-23T05:21:24;98732.69600812663;;;7.920576791027692;85.10589761196307
71642;BME280;60657;50.122;14.468;2022-09-23T05:24:41;98729.31242578954;;;7.8591592278934925;85.33287556267643
71642;BME280;60657;50.122;14.468;2022-09-23T05:27:56;98727.4096881356;;;7.725642786297399;85.68574044403753
71642;BME280;60657;50.122;14.468;2022-09-23T05:31:13;98735.6838988228;;;7.744335088120849;86.31517509727627
71642;BME280;60657;50.122;14.468;2022-09-23T05:34:31;98740.29641182165;;;7.976653696498055;85.72007324330511
71642;BME280;60657;50.122;14.468;2022-09-23T05:37:46;98736.59579421295;;;8.254367895017928;84.62714579995422
71642;BME280;60657;50.122;14.468;2022-09-23T05:41:03;98740.82821183524;;;8.297093156328678;84.63477531090257
71642;BME280;60657;50.122;14.468;2022-09-23T05:44:20;98742.65564759322;;;8.42259861142901;84.34866865033952
71642;BME280;60657;50.122;14.468;2022-09-23T05:47:40;98739.35783295412;;;8.409246967269397;83.5418478675517
71642;BME280;60657;50.122;14.468;2022-09-23T05:51:01;98746.86548883833;;;8.433279926756697;83.36446173800259
71642;BME280;60657;50.122;14.468;2022-09-23T05:54:17;98739.91237146834;;;8.254367895017928;84.02059967956055
71642;BME280;60657;50.122;14.468;2022-09-23T05:57:33;98741.78221258639;;;8.411917296101322;83.15846494239719
71642;BME280;60657;50.122;14.468;2022-09-23T06:00:49;98738.5236682711;;;8.43862058442054;83.42168307011521
71642;BME280;60657;50.122;14.468;2022-09-23T06:04:06;98744.95904422273;;;8.33714808880751;83.94239719233997
71642;BME280;60657;50.122;14.468;2022-09-23T06:07:26;98747.62179623659;;;8.454642557412072;83.4083314259556
71642;BME280;60657;50.122;14.468;2022-09-23T06:10:42;98747.6803447946;;;8.516060120546271;83.47318226901656
71642;BME280;60657;50.122;14.468;2022-09-23T06:14:00;98749.53828022658;;;8.636224917982759;83.20805676356146
71642;BME280;60657;50.122;14.468;2022-09-23T06:17:16;98750.22156212409;;;8.577477683680478;83.90043488212406
71642;BME280;60657;50.122;14.468;2022-09-23T06:20:32;98750.99783387405;;;8.556115053025103;83.55138475623713
71642;BME280;60657;50.122;14.468;2022-09-23T06:23:48;98756.11813638009;;;8.630884260318915;83.47127489127946
71642;BME280;60657;50.122;14.468;2022-09-23T06:27:04;98763.58840056772;;;8.662928206301977;83.13176165407798
71642;BME280;60657;50.122;14.468;2022-09-23T06:30:20;98754.67041924369;;;8.788433661402301;82.47753109025712
71642;BME280;60657;50.122;14.468;2022-09-23T06:33:36;98759.74572514705;;;8.799114976729989;81.67452506294346
71642;BME280;60657;50.122;14.468;2022-09-23T06:36:52;98756.42689822192;;;8.887235828183414;80.90775921263447
71642;BME280;60657;50.122;14.468;2022-09-23T06:40:08;98757.33002571743;;;8.9593347066453;80.71892881666285
71642;BME280;60657;50.122;14.468;2022-09-23T06:43:24;98761.90085436052;;;8.68696116578927;81.76798657206074
71642;BME280;60657;50.122;14.468;2022-09-23T06:46:40;98773.38715260745;;;8.574807354848552;82.20477607385367
71642;BME280;60657;50.122;14.468;2022-09-23T06:49:56;98759.63924096436;;;8.759060044251164;81.63637750820172
71642;BME280;60657;50.122;14.468;2022-09-23T06:53:17;98757.33002571743;;;8.91660944533455;81.27969787136645
71642;BME280;60657;50.122;14.468;2022-09-23T06:56:34;98754.2254795125;;;9.122224765392538;80.77424277103837
71642;BME280;60657;50.122;14.468;2022-09-23T06:59:50;98755.13800516166;;;9.1783016708629;79.75570305943388
71642;BME280;60657;50.122;14.468;2022-09-23T07:03:06;98753.99393257004;;;8.983367666132601;80.25925078202488
71642;BME280;60657;50.122;14.468;2022-09-23T07:06:22;98762.12365501547;;;8.956664377813382;80.4023041123064
71642;BME280;60657;50.122;14.468;2022-09-23T07:09:38;98757.39773565733;;;9.170290684367131;80.02273594262608
71642;BME280;60657;50.122;14.468;2022-09-23T07:12:54;98752.57362118749;;;9.298466468299381;79.39902342259862
71642;BME280;60657;50.122;14.468;2022-09-23T07:16:09;98755.57820811906;;;9.89394979781796;78.54261081864652
71642;BME280;60657;50.122;14.468;2022-09-23T07:19:28;98759.31026006473;;;10.297169451438165;75.97337300679027
71642;BME280;60657;50.122;14.468;2022-09-23T07:22:47;98759.49883603296;;;10.596246280613414;73.91531242847333
71642;BME280;60657;50.122;14.468;2022-09-23T07:26:03;98762.99385167913;;;10.9487296864271;72.8872358281834
71642;BME280;60657;50.122;14.468;2022-09-23T07:29:19;98756.46960735285;;;11.45075150682841;72.23872739757381
71642;BME280;60657;50.122;14.468;2022-09-23T07:32:35;98754.85857995771;;;11.701762417029066;71.0332646677348
71642;BME280;60657;50.122;14.468;2022-09-23T07:35:51;98762.36821604309;;;11.73113603418021;71.02563515678645
71642;BME280;60657;50.122;14.468;2022-09-23T07:39:07;98761.52174517795;;;12.366674296177614;68.22369726100557
71642;BME280;60657;50.122;14.468;2022-09-23T07:42:24;98752.28583548666;;;12.70046540016785;66.6291294728008
71642;BME280;60657;50.122;14.468;2022-09-23T07:45:40;98756.40245471941;;;12.858014801251237;65.73838406958114
71642;BME280;60657;50.122;14.468;2022-09-23T07:48:55;98758.91729961289;;;12.927443350881205;65.45418478675516
71642;BME280;60657;50.122;14.468;2022-09-23T07:52:12;98764.78748067644;;;12.756542305638206;66.63294422827497
71642;BME280;60657;50.122;14.468;2022-09-23T07:55:28;98770.63616005953;;;12.47081712062257;66.79507133592736
71642;BME280;60657;50.122;14.468;2022-09-23T07:58:49;98778.14294481355;;;12.639047837033644;66.30869001297017
71642;BME280;60657;50.122;14.468;2022-09-23T08:02:09;98779.02291822027;;;12.219806210421915;68.01770046540017
71642;BME280;60657;50.122;14.468;2022-09-23T08:05:25;98768.9818257316;;;12.788586251621268;66.58144502937361
71642;BME280;60657;50.122;14.468;2022-09-23T08:08:41;98772.3186931189;;;12.812619211108569;66.10650797283894
71642;BME280;60657;50.122;14.468;2022-09-23T08:11:56;98766.458852363;;;12.95681696803235;65.66208896009766
71642;BME280;60657;50.122;14.468;2022-09-23T08:15:13;98767.35019779654;;;12.5722896162356;67.09643701838712
71642;BME280;60657;50.122;14.468;2022-09-23T08:18:29;98760.67599184235;;;12.636377508201726;67.64576180666819
71642;BME280;60657;50.122;14.468;2022-09-23T08:21:45;98756.43590189857;;;13.098344396124212;67.38445105668727
71642;BME280;60657;50.122;14.468;2022-09-23T08:25:01;98736.66656345759;;;14.195849546044101;63.89394979781795
71642;BME280;60657;50.122;14.468;2022-09-23T08:28:16;98742.04497861801;;;14.612420843823912;62.18875410086214
71642;BME280;60657;50.122;14.468;2022-09-23T08:31:32;98740.01452530752;;;14.954222934309911;60.95277332722972
71642;BME280;60657;50.122;14.468;2022-09-23T08:34:47;98729.98412221033;;;14.820706492713818;60.80399786373694
71642;BME280;60657;50.122;14.468;2022-09-23T08:38:03;98737.03009829001;;;15.31204699778744;59.569924467841616
71642;BME280;60657;50.122;14.468;2022-09-23T08:41:21;98729.47943240624;;;15.934233615625239;57.057907988097966
71642;BME280;60657;50.122;14.468;2022-09-23T08:44:49;98723.10589298999;;;16.254673075455862;56.68596932936599
71642;BME280;60657;50.122;14.468;2022-09-23T08:48:11;98715.64014025572;;;16.684596017395286;55.68841077286946
71642;BME280;60657;50.122;14.468;2022-09-23T08:51:33;98709.25426912816;;;17.42961776150149;53.26031891355764
71642;BME280;60657;50.122;14.468;2022-09-23T08:54:56;98701.47144664875;;;17.862211032272832;51.482642862592506
71642;BME280;60657;50.122;14.468;2022-09-23T08:58:18;98707.27824380239;;;18.14526588845655;51.18509193560693
71642;BME280;60657;50.122;14.468;2022-09-23T09:01:48;98708.53964586495;;;17.7367055771725;53.069581139848935
71642;BME280;60657;50.122;14.468;2022-09-23T09:05:09;98698.31557384647;;;18.310826276035705;52.18074311436637
71642;BME280;60657;50.122;14.468;2022-09-23T09:08:27;98700.09600224285;;;18.41496910048066;50.67200732433051
71642;BME280;60657;50.122;14.468;2022-09-23T09:11:48;98694.28345123646;;;17.808804455634395;52.501182574196996
71642;BME280;60657;50.122;14.468;2022-09-23T09:15:11;98697.837953375;;;18.233386739909974;51.77637903410391
71642;BME280;60657;50.122;14.468;2022-09-23T09:18:29;98690.9354786445;;;18.190661478599225;50.746395056076906
71642;BME280;60657;50.122;14.468;2022-09-23T09:21:53;98695.97535763012;;;18.18532082093538;49.72404058899824
71642;BME280;60657;50.122;14.468;2022-09-23T09:25:13;98685.98535675414;;;18.623254749370567;49.672541390096896
71642;BME280;60657;50.122;14.468;2022-09-23T09:28:37;98678.27254396904;;;19.042496375982296;48.682612344548716
71642;BME280;60657;50.122;14.468;2022-09-23T09:31:59;98674.05476007288;;;18.831540398260472;48.858091096360724
71642;BME280;60657;50.122;14.468;2022-09-23T09:35:33;98668.755333248;;;19.226749065384908;46.822919050888835
71642;BME280;60657;50.122;14.468;2022-09-23T09:38:56;98669.87731011423;;;18.810177767605097;48.243915465018695
71642;BME280;60657;50.122;14.468;2022-09-23T09:42:12;98657.0881859737;;;19.488441290913258;48.25917448691539
71642;BME280;60657;50.122;14.468;2022-09-23T09:45:43;98656.503283994;;;20.091935606927592;45.480125123979555
71642;BME280;60657;50.122;14.468;2022-09-23T09:49:13;98649.25155931064;;;20.148012512397955;44.677119096665905
71642;BME280;60657;50.122;14.468;2022-09-23T09:52:41;98644.24427934893;;;20.16937514305333;44.45014114595254
71642;BME280;60657;50.122;14.468;2022-09-23T09:55:57;98644.78758362035;;;19.99046311131457;45.20355535210193
71642;BME280;60657;50.122;14.468;2022-09-23T09:59:17;98639.5843402302;;;20.137331197070267;43.7196154726482
71642;BME280;60657;50.122;14.468;2022-09-23T10:02:40;98638.6607924597;;;19.987792782482643;43.71770809491112
71642;BME280;60657;50.122;14.468;2022-09-23T10:05:56;98629.01827993494;;;20.949111161974514;42.57328145265888
71642;BME280;60657;50.122;14.468;2022-09-23T10:09:13;98624.16982184842;;;20.941100175478752;41.33920805676356
71642;BME280;60657;50.122;14.468;2022-09-23T10:12:32;98629.12325645317;;;20.222781719691767;43.202716105897615
71642;BME280;60657;50.122;14.468;2022-09-23T10:15:59;98626.06825982197;;;20.166704814221404;42.91470206759747
71642;BME280;60657;50.122;14.468;2022-09-23T10:19:22;98616.84928684788;;;20.537880521858554;42.31197070267796
71642;BME280;60657;50.122;14.468;2022-09-23T10:22:40;98613.43509943936;;;20.674067292286566;42.08880750743877
71642;BME280;60657;50.122;14.468;2022-09-23T10:25:57;98609.88410943898;;;20.957122148470276;40.68688487067979
71642;BME280;60657;50.122;14.468;2022-09-23T10:29:19;98603.60553512925;;;20.51918822003509;41.280079346913865
71642;BME280;60657;50.122;14.468;2022-09-23T10:32:42;98598.41424515107;;;20.65270466163119;40.30350194552529
71642;BME280;60657;50.122;14.468;2022-09-23T10:35:59;98598.96957695759;;;21.355001144426637;39.719844357976655
71642;BME280;60657;50.122;14.468;2022-09-23T10:39:14;98594.19415535369;;;21.69947356374456;43.17792019531548
71642;BME280;60657;50.122;14.468;2022-09-23T10:42:32;98594.07824493283;;;21.4965285725185;44.28610666056306
71642;BME280;60657;50.122;14.468;2022-09-23T10:46:03;98582.99234981042;;;21.726176852063787;43.51552605477989
71642;BME280;60657;50.122;14.468;2022-09-23T10:49:26;98589.06591455644;;;21.688792248416874;43.984740978103304
71642;BME280;60657;50.122;14.468;2022-09-23T10:53:02;98577.27414799012;;;22.270923933775848;41.79507133592737
71642;BME280;60657;50.122;14.468;2022-09-23T10:56:30;98576.73525530871;;;21.90508888380255;41.89997711146715
71642;BME280;60657;50.122;14.468;2022-09-23T10:59:53;98560.09509215316;;;22.343022812237734;41.87327382314793
71642;BME280;60657;50.122;14.468;2022-09-23T11:03:23;98561.99449330238;;;22.270923933775848;42.624780651560236
71642;BME280;60657;50.122;14.468;2022-09-23T11:06:59;98556.77141069679;;;22.604715037766084;42.35965514610513
71642;BME280;60657;50.122;14.468;2022-09-23T11:10:38;98551.56462035514;;;22.69550621805142;42.418783855954835
71642;BME280;60657;50.122;14.468;2022-09-23T11:14:10;98542.6984732404;;;22.529945830472272;42.42259861142901
71642;BME280;60657;50.122;14.468;2022-09-23T11:17:44;98539.67867385918;;;22.206836041809723;42.89944304570077
71642;BME280;60657;50.122;14.468;2022-09-23T11:21:35;98537.19207915194;;;22.20950637064165;43.574654764629585
71642;BME280;60657;50.122;14.468;2022-09-23T11:25:10;98524.31095542895;;;22.148088807507435;42.11169604028382
71642;BME280;60657;50.122;14.468;2022-09-23T11:28:52;98515.84952549973;;;22.861066605630583;41.241931792172124
71642;BME280;60657;50.122;14.468;2022-09-23T11:32:31;98516.92732760376;;;22.537956816968034;41.65011062790875
71642;BME280;60657;50.122;14.468;2022-09-23T11:36:21;98507.57284153068;;;22.367055771725035;43.4983596551461
71642;BME280;60657;50.122;14.468;2022-09-23T11:39:44;98517.45757426845;;;22.180132753490497;42.99671931029221
71642;BME280;60657;50.122;14.468;2022-09-23T11:43:08;98503.74912367383;;;22.50591287098497;42.23567559319448
71642;BME280;60657;50.122;14.468;2022-09-23T11:46:34;98505.68996464863;;;22.161440451667048;42.84985122453651
71642;BME280;60657;50.122;14.468;2022-09-23T11:49:59;98502.12145654619;;;22.537956816968034;40.85091935606928
71642;BME280;60657;50.122;14.468;2022-09-23T11:53:21;98499.6311086666;;;22.537956816968034;42.86320286869611
71642;BME280;60657;50.122;14.468;2022-09-23T11:56:43;98502.411665457;;;21.218814373998626;46.460517280842296
71642;BME280;60657;50.122;14.468;2022-09-23T12:00:05;98507.59757224238;;;21.07995727473869;44.883115892271306
71642;BME280;60657;50.122;14.468;2022-09-23T12:03:32;98499.9387427356;;;21.266880292973227;45.84824902723735
71642;BME280;60657;50.122;14.468;2022-09-23T12:07:01;98495.47026233199;;;21.029221026932177;45.665140764476995
71642;BME280;60657;50.122;14.468;2022-09-23T12:10:32;98490.72516088253;;;20.222781719691767;47.170061799038685